createdAt,value
2022-11-26T00:01:25.006Z,9.52
2022-11-26T00:03:53.596Z,9.49
2022-11-26T00:06:30.406Z,9.49
2022-11-26T00:08:59.784Z,9.48
2022-11-26T00:11:29.526Z,9.44
2022-11-26T00:13:57.444Z,9.44
2022-11-26T00:16:30.641Z,9.45
2022-11-26T00:18:58.703Z,9.44
2022-11-26T00:21:38.546Z,9.46
2022-11-26T00:24:14.909Z,9.43
2022-11-26T00:26:44.450Z,9.41
2022-11-26T00:29:12.276Z,9.42
2022-11-26T00:31:40.174Z,9.44
2022-11-26T00:34:08.254Z,9.48
2022-11-26T00:36:36.310Z,9.51
2022-11-26T00:39:07.016Z,9.51
2022-11-26T00:41:38.431Z,9.46
2022-11-26T00:44:18.735Z,9.45
2022-11-26T00:46:46.826Z,9.41
2022-11-26T00:49:15.132Z,9.38
2022-11-26T00:51:44.098Z,9.35
2022-11-26T00:54:15.226Z,9.31
2022-11-26T00:56:43.084Z,9.32
2022-11-26T00:59:14.595Z,9.30
2022-11-26T01:01:42.905Z,9.25
2022-11-26T01:04:11.048Z,9.22
2022-11-26T01:06:42.600Z,9.21
2022-11-26T01:09:17.518Z,9.17
2022-11-26T01:11:49.762Z,9.10
2022-11-26T01:14:23.920Z,9.09
2022-11-26T01:16:54.134Z,9.08
2022-11-26T01:19:22.356Z,9.05
2022-11-26T01:21:50.517Z,9.00
2022-11-26T01:24:18.557Z,8.97
2022-11-26T01:26:47.031Z,8.97
2022-11-26T01:29:21.263Z,8.93
2022-11-26T01:31:53.728Z,8.93
2022-11-26T01:34:22.216Z,8.91
2022-11-26T01:36:50.471Z,8.92
2022-11-26T01:39:21.114Z,8.87
2022-11-26T01:41:58.606Z,8.86
2022-11-26T01:44:29.138Z,8.82
2022-11-26T01:47:01.951Z,8.80
2022-11-26T01:49:33.536Z,8.77
2022-11-26T01:52:06.183Z,8.76
2022-11-26T01:54:39.625Z,8.67
2022-11-26T01:57:12.252Z,8.69
2022-11-26T01:59:48.541Z,8.67
2022-11-26T02:02:19.207Z,8.62
2022-11-26T02:04:56.650Z,8.58
2022-11-26T02:07:24.947Z,8.61
2022-11-26T02:09:53.119Z,8.57
2022-11-26T02:12:21.748Z,8.59
2022-11-26T02:14:50.407Z,8.61
2022-11-26T02:17:26.878Z,8.63
2022-11-26T02:20:27.127Z,8.65
2022-11-26T02:23:36.771Z,8.66
2022-11-26T02:26:46.163Z,8.69
2022-11-26T02:29:25.100Z,8.72
2022-11-26T02:32:00.738Z,8.70
2022-11-26T02:34:39.963Z,8.73
2022-11-26T02:37:15.004Z,8.75
2022-11-26T02:39:42.945Z,8.78
2022-11-26T02:42:27.101Z,8.79
2022-11-26T02:44:57.279Z,8.77
2022-11-26T02:47:28.814Z,8.84
2022-11-26T02:50:00.516Z,8.81
2022-11-26T02:52:29.548Z,8.82
2022-11-26T02:54:58.321Z,8.85
2022-11-26T02:57:31.335Z,8.87
2022-11-26T02:59:59.651Z,8.88
2022-11-26T03:02:35.543Z,8.83
2022-11-26T03:05:06.260Z,8.87
2022-11-26T03:07:37.633Z,8.90
2022-11-26T03:10:07.190Z,8.90
2022-11-26T03:12:35.178Z,8.89
2022-11-26T03:15:03.192Z,8.90
2022-11-26T03:17:32.707Z,8.92
2022-11-26T03:20:00.750Z,8.94
2022-11-26T03:22:29.101Z,8.90
2022-11-26T03:24:56.947Z,8.89
2022-11-26T03:27:24.943Z,8.90
2022-11-26T03:29:53.381Z,8.86
2022-11-26T03:32:21.225Z,8.80
2022-11-26T03:34:50.631Z,8.74
2022-11-26T03:37:20.259Z,8.76
2022-11-26T03:39:48.094Z,8.78
2022-11-26T03:42:15.966Z,8.71
2022-11-26T03:44:43.858Z,8.66
2022-11-26T03:47:11.648Z,8.65
2022-11-26T03:49:39.586Z,8.59
2022-11-26T03:52:08.975Z,8.63
2022-11-26T03:54:37.185Z,8.67
2022-11-26T03:57:05.378Z,8.68
2022-11-26T03:59:33.505Z,8.66
2022-11-26T04:02:01.293Z,8.61
2022-11-26T04:04:29.365Z,8.62
2022-11-26T04:06:57.396Z,8.63
2022-11-26T04:09:26.703Z,8.66
2022-11-26T04:11:54.565Z,8.70
2022-11-26T04:14:22.632Z,8.70
2022-11-26T04:16:50.516Z,8.72
2022-11-26T04:19:18.451Z,8.59
2022-11-26T04:21:46.358Z,8.58
2022-11-26T04:24:14.331Z,8.59
2022-11-26T04:26:43.571Z,8.55
2022-11-26T04:29:11.539Z,8.64
2022-11-26T04:31:39.476Z,8.68
2022-11-26T04:34:07.419Z,8.67
2022-11-26T04:36:35.905Z,8.62
2022-11-26T04:39:03.730Z,8.61
2022-11-26T04:41:31.628Z,8.62
2022-11-26T04:44:00.932Z,8.68
2022-11-26T04:46:29.114Z,8.59
2022-11-26T04:48:57.108Z,8.63
2022-11-26T04:51:25.118Z,8.68
2022-11-26T04:53:55.715Z,8.75
2022-11-26T04:56:24.005Z,8.78
2022-11-26T04:58:52.207Z,8.78
2022-11-26T05:01:21.476Z,8.77
2022-11-26T05:03:49.321Z,8.75
2022-11-26T05:06:17.286Z,8.75
2022-11-26T05:08:45.129Z,8.59
2022-11-26T05:11:13.030Z,8.62
2022-11-26T05:13:41.271Z,8.58
2022-11-26T05:16:09.406Z,8.60
2022-11-26T05:18:38.687Z,8.63
2022-11-26T05:21:06.889Z,8.65
2022-11-26T05:23:34.800Z,8.57
2022-11-26T05:26:02.652Z,8.60
2022-11-26T05:28:30.533Z,8.54
2022-11-26T05:31:02.619Z,8.53
2022-11-26T05:33:30.896Z,8.49
2022-11-26T05:36:00.120Z,8.55
2022-11-26T05:38:28.541Z,8.53
2022-11-26T05:40:56.672Z,8.54
2022-11-26T05:43:24.517Z,8.51
2022-11-26T05:45:52.400Z,8.59
2022-11-26T05:48:20.396Z,8.63
2022-11-26T05:50:53.113Z,8.70
2022-11-26T05:53:23.822Z,8.69
2022-11-26T05:55:51.803Z,8.71
2022-11-26T05:58:19.866Z,8.66
2022-11-26T06:00:47.830Z,8.67
2022-11-26T06:03:20.062Z,8.64
2022-11-26T06:05:48.775Z,8.60
2022-11-26T06:08:16.814Z,8.59
2022-11-26T06:10:46.142Z,8.47
2022-11-26T06:13:14.307Z,8.57
2022-11-26T06:15:42.292Z,8.50
2022-11-26T06:18:10.396Z,8.51
2022-11-26T06:20:39.249Z,8.58
2022-11-26T06:23:07.158Z,8.62
2022-11-26T06:25:35.273Z,8.61
2022-11-26T06:28:04.747Z,8.60
2022-11-26T06:30:32.668Z,8.66
2022-11-26T06:33:00.533Z,8.63
2022-11-26T06:35:28.594Z,8.58
2022-11-26T06:37:57.031Z,8.65
2022-11-26T06:40:25.059Z,8.67
2022-11-26T06:42:54.171Z,8.74
2022-11-26T06:45:24.465Z,8.72
2022-11-26T06:47:53.240Z,8.59
2022-11-26T06:50:23.713Z,8.68
2022-11-26T06:52:53.013Z,8.68
2022-11-26T06:55:21.515Z,8.67
2022-11-26T06:57:51.437Z,8.54
2022-11-26T07:00:20.312Z,8.53
2022-11-26T07:02:49.981Z,8.56
2022-11-26T07:05:18.404Z,8.62
2022-11-26T07:07:46.339Z,8.71
2022-11-26T07:10:14.297Z,8.76
2022-11-26T07:12:42.213Z,8.85
2022-11-26T07:15:11.215Z,8.91
2022-11-26T07:17:39.469Z,8.95
2022-11-26T07:20:10.198Z,9.05
2022-11-26T07:22:38.085Z,9.01
2022-11-26T07:25:12.111Z,8.97
2022-11-26T07:27:41.083Z,8.99
2022-11-26T07:30:10.457Z,9.07
2022-11-26T07:32:38.516Z,9.12
2022-11-26T07:35:08.790Z,9.20
2022-11-26T07:37:36.835Z,9.20
2022-11-26T07:40:05.554Z,9.19
2022-11-26T07:42:34.481Z,9.21
2022-11-26T07:45:03.788Z,9.26
2022-11-26T07:47:31.656Z,9.31
2022-11-26T07:49:59.655Z,9.27
2022-11-26T07:52:29.160Z,9.29
2022-11-26T07:54:57.092Z,9.29
2022-11-26T07:57:25.460Z,9.20
2022-11-26T07:59:53.438Z,9.16
2022-11-26T08:02:21.409Z,9.16
2022-11-26T08:04:49.818Z,9.11
2022-11-26T08:07:24.330Z,9.15
2022-11-26T08:09:55.552Z,9.16
2022-11-26T08:12:23.654Z,9.16
2022-11-26T08:14:51.515Z,9.27
2022-11-26T08:17:19.605Z,9.27
2022-11-26T08:19:47.488Z,9.36
2022-11-26T08:22:15.395Z,9.37
2022-11-26T08:24:43.264Z,9.18
2022-11-26T08:27:12.649Z,9.15
2022-11-26T08:29:40.759Z,9.26
2022-11-26T08:32:08.799Z,9.31
2022-11-26T08:34:36.839Z,9.36
2022-11-26T08:37:04.802Z,9.40
2022-11-26T08:39:32.729Z,9.45
2022-11-26T08:42:00.525Z,9.36
2022-11-26T08:44:29.764Z,9.42
2022-11-26T08:46:57.688Z,9.35
2022-11-26T08:49:25.673Z,9.37
2022-11-26T08:51:56.563Z,9.36
2022-11-26T08:54:24.765Z,9.44
2022-11-26T08:56:52.601Z,9.53
2022-11-26T08:59:22.969Z,9.51
2022-11-26T09:01:52.442Z,9.57
2022-11-26T09:04:20.455Z,9.56
2022-11-26T09:06:48.448Z,9.67
2022-11-26T09:09:17.717Z,9.63
2022-11-26T09:11:51.252Z,9.68
2022-11-26T09:14:23.116Z,9.76
2022-11-26T09:16:52.394Z,9.80
2022-11-26T09:19:20.339Z,9.73
2022-11-26T09:21:48.735Z,9.77
2022-11-26T09:24:17.537Z,9.84
2022-11-26T09:26:48.554Z,9.84
2022-11-26T09:29:19.557Z,9.87
2022-11-26T09:32:21.862Z,9.81
2022-11-26T09:34:38.626Z,9.83
2022-11-26T09:37:06.817Z,9.85
2022-11-26T09:39:35.030Z,9.84
2022-11-26T09:42:07.902Z,9.77
2022-11-26T09:44:53.527Z,9.78
2022-11-26T09:47:23.758Z,9.86
2022-11-26T09:50:03.837Z,9.86
2022-11-26T09:52:41.996Z,9.92
2022-11-26T09:55:16.460Z,9.87
2022-11-26T09:57:50.595Z,9.94
2022-11-26T10:00:28.226Z,9.95
2022-11-26T10:02:58.164Z,10.09
2022-11-26T10:05:38.932Z,10.19
2022-11-26T10:08:17.395Z,10.26
2022-11-26T10:10:53.912Z,10.34
2022-11-26T10:13:29.202Z,10.49
2022-11-26T10:16:08.928Z,10.59
2022-11-26T10:18:46.913Z,10.57
2022-11-26T10:21:37.916Z,10.41
2022-11-26T10:24:22.489Z,10.37
2022-11-26T10:26:51.037Z,10.17
2022-11-26T10:29:24.092Z,10.23
2022-11-26T10:31:57.643Z,10.36
2022-11-26T10:34:33.379Z,10.50
2022-11-26T10:37:05.539Z,10.40
2022-11-26T10:39:33.439Z,10.39
2022-11-26T10:42:05.597Z,10.41
2022-11-26T10:44:40.571Z,10.48
2022-11-26T10:47:29.691Z,10.26
2022-11-26T10:50:40.007Z,10.34
2022-11-26T10:53:07.468Z,10.38
2022-11-26T10:55:40.075Z,10.29
2022-11-26T10:58:17.254Z,10.27
2022-11-26T11:00:54.764Z,9.99
2022-11-26T11:03:44.494Z,10.10
2022-11-26T11:06:28.150Z,10.01
2022-11-26T11:08:57.621Z,10.03
2022-11-26T11:11:27.464Z,10.07
2022-11-26T11:13:56.217Z,10.10
2022-11-26T11:16:28.479Z,10.07
2022-11-26T11:18:59.367Z,10.06
2022-11-26T11:21:31.342Z,10.15
2022-11-26T11:24:15.345Z,10.12
2022-11-26T11:26:46.424Z,10.07
2022-11-26T11:29:33.674Z,10.17
2022-11-26T11:32:04.519Z,10.18
2022-11-26T11:34:35.134Z,10.17
2022-11-26T11:37:05.752Z,10.16
2022-11-26T11:39:36.513Z,10.17
2022-11-26T11:42:09.868Z,10.11
2022-11-26T11:44:43.147Z,10.20
2022-11-26T11:47:32.930Z,10.13
2022-11-26T11:50:22.129Z,9.98
2022-11-26T11:53:20.273Z,10.09
2022-11-26T11:56:12.719Z,10.24
2022-11-26T11:59:08.063Z,10.23
2022-11-26T12:01:54.553Z,10.19
2022-11-26T12:04:32.533Z,10.19
2022-11-26T12:07:28.480Z,10.21
2022-11-26T12:10:06.785Z,10.22
2022-11-26T12:12:39.521Z,10.32
2022-11-26T12:15:13.062Z,10.35
2022-11-26T12:17:46.127Z,10.26
2022-11-26T12:20:20.176Z,10.28
2022-11-26T12:22:58.316Z,10.38
2022-11-26T12:25:35.325Z,10.37
2022-11-26T12:28:14.052Z,10.34
2022-11-26T12:30:51.475Z,10.28
2022-11-26T12:33:25.086Z,10.32
2022-11-26T12:35:56.558Z,10.42
2022-11-26T12:38:29.062Z,10.47
2022-11-26T12:41:02.523Z,10.33
2022-11-26T12:43:47.677Z,10.26
2022-11-26T12:46:20.764Z,10.20
2022-11-26T12:48:55.990Z,10.22
2022-11-26T12:51:34.573Z,10.17
2022-11-26T12:54:12.013Z,10.13
2022-11-26T12:56:49.968Z,10.19
2022-11-26T12:59:26.920Z,10.35
2022-11-26T13:01:54.961Z,10.44
2022-11-26T13:04:37.741Z,10.40
2022-11-26T13:07:26.897Z,10.30
2022-11-26T13:10:05.469Z,10.42
2022-11-26T13:12:45.733Z,10.35
2022-11-26T13:15:23.096Z,10.22
2022-11-26T13:17:52.980Z,10.21
2022-11-26T13:20:54.900Z,10.24
2022-11-26T13:24:03.594Z,10.26
2022-11-26T13:26:49.342Z,10.28
2022-11-26T13:29:31.165Z,10.24
2022-11-26T13:32:19.824Z,10.31
2022-11-26T13:35:05.756Z,10.07
2022-11-26T13:37:56.153Z,10.01
2022-11-26T13:40:50.299Z,10.14
2022-11-26T13:43:55.718Z,10.23
2022-11-26T13:46:25.855Z,10.17
2022-11-26T13:49:01.350Z,10.15
2022-11-26T13:51:37.142Z,10.17
2022-11-26T13:54:12.441Z,10.31
2022-11-26T13:56:42.559Z,10.39
2022-11-26T13:59:18.289Z,10.49
2022-11-26T14:01:47.302Z,10.56
2022-11-26T14:04:37.865Z,10.58
2022-11-26T14:07:21.933Z,10.49
2022-11-26T14:09:53.797Z,10.29
2022-11-26T14:12:23.002Z,10.32
2022-11-26T14:14:51.989Z,10.15
2022-11-26T14:17:24.988Z,10.32
2022-11-26T14:20:05.676Z,10.40
2022-11-26T14:22:35.730Z,10.47
2022-11-26T14:25:06.021Z,10.49
2022-11-26T14:27:35.603Z,10.43
2022-11-26T14:30:26.894Z,10.46
2022-11-26T14:33:10.341Z,10.28
2022-11-26T14:35:41.296Z,10.22
2022-11-26T14:38:24.764Z,10.25
2022-11-26T14:40:58.126Z,10.25
2022-11-26T14:43:26.140Z,10.26
2022-11-26T14:46:12.697Z,10.22
2022-11-26T14:48:44.499Z,10.28
2022-11-26T14:51:21.852Z,10.31
2022-11-26T14:53:51.050Z,10.36
2022-11-26T14:56:21.064Z,10.11
2022-11-26T14:58:52.654Z,10.09
2022-11-26T15:01:22.823Z,9.99
2022-11-26T15:03:59.085Z,9.90
2022-11-26T15:06:34.858Z,9.98
2022-11-26T15:09:15.345Z,9.81
2022-11-26T15:11:48.825Z,9.65
2022-11-26T15:14:22.473Z,9.62
2022-11-26T15:16:56.751Z,9.72
2022-11-26T15:19:25.688Z,9.75
2022-11-26T15:21:55.387Z,9.77
2022-11-26T15:24:23.464Z,9.74
2022-11-26T15:26:51.948Z,9.73
2022-11-26T15:29:41.083Z,9.80
2022-11-26T15:32:27.903Z,9.77
2022-11-26T15:34:58.528Z,9.77
2022-11-26T15:37:28.386Z,9.76
2022-11-26T15:40:11.254Z,9.68
2022-11-26T15:42:40.618Z,9.66
2022-11-26T15:45:16.340Z,9.82
2022-11-26T15:47:47.885Z,9.94
2022-11-26T15:50:27.507Z,9.92
2022-11-26T15:53:01.970Z,9.76
2022-11-26T15:55:33.383Z,9.82
2022-11-26T15:58:05.755Z,9.89
2022-11-26T16:00:37.404Z,9.94
2022-11-26T16:03:06.137Z,9.94
2022-11-26T16:05:38.125Z,9.97
2022-11-26T16:08:25.041Z,9.91
2022-11-26T16:10:57.136Z,9.93
2022-11-26T16:13:28.995Z,10.00
2022-11-26T16:16:02.102Z,9.85
2022-11-26T16:18:37.490Z,9.84
2022-11-26T16:21:08.336Z,9.91
2022-11-26T16:23:37.836Z,10.02
2022-11-26T16:26:15.312Z,10.01
2022-11-26T16:28:43.721Z,9.98
2022-11-26T16:31:11.774Z,9.97
2022-11-26T16:33:39.912Z,9.93
2022-11-26T16:36:19.162Z,10.01
2022-11-26T16:38:49.156Z,10.01
2022-11-26T16:41:19.057Z,10.03
2022-11-26T16:43:47.109Z,10.11
2022-11-26T16:46:17.623Z,10.16
2022-11-26T16:48:47.164Z,10.10
2022-11-26T16:51:15.366Z,10.11
2022-11-26T16:53:43.349Z,10.04
2022-11-26T16:56:20.585Z,10.09
2022-11-26T16:58:48.920Z,10.10
2022-11-26T17:01:17.281Z,10.21
2022-11-26T17:03:45.431Z,10.08
2022-11-26T17:06:17.021Z,10.13
2022-11-26T17:08:49.664Z,10.24
2022-11-26T17:11:19.587Z,10.23
2022-11-26T17:13:47.688Z,10.22
2022-11-26T17:16:19.210Z,10.25
2022-11-26T17:18:47.200Z,10.31
2022-11-26T17:21:15.529Z,10.30
2022-11-26T17:23:44.659Z,10.22
2022-11-26T17:26:21.351Z,10.22
2022-11-26T17:28:50.437Z,10.26
2022-11-26T17:31:18.954Z,10.35
2022-11-26T17:33:47.110Z,10.33
2022-11-26T17:36:20.438Z,10.35
2022-11-26T17:38:49.322Z,10.36
2022-11-26T17:41:17.679Z,10.39
2022-11-26T17:43:47.193Z,10.38
2022-11-26T17:46:17.669Z,10.38
2022-11-26T17:48:46.095Z,10.34
2022-11-26T17:51:15.272Z,10.26
2022-11-26T17:53:44.135Z,10.34
2022-11-26T17:56:24.102Z,10.26
2022-11-26T17:58:54.080Z,10.29
2022-11-26T18:01:22.597Z,10.29
2022-11-26T18:03:52.366Z,10.31
2022-11-26T18:06:27.152Z,10.37
2022-11-26T18:08:54.988Z,10.34
2022-11-26T18:11:43.088Z,10.42
2022-11-26T18:14:12.660Z,10.42
2022-11-26T18:16:41.088Z,10.43
2022-11-26T18:19:10.691Z,10.32
2022-11-26T18:21:38.795Z,10.26
2022-11-26T18:24:07.949Z,10.30
2022-11-26T18:26:36.764Z,10.35
2022-11-26T18:29:05.238Z,10.43
2022-11-26T18:31:39.501Z,10.43
2022-11-26T18:34:08.606Z,10.42
2022-11-26T18:36:36.419Z,10.37
2022-11-26T18:39:04.851Z,10.45
2022-11-26T18:41:33.110Z,10.48
2022-11-26T18:44:02.331Z,10.49
2022-11-26T18:46:30.670Z,10.54
2022-11-26T18:49:00.566Z,10.58
2022-11-26T18:51:28.897Z,10.53
2022-11-26T18:53:56.791Z,10.54
2022-11-26T18:56:25.627Z,10.45
2022-11-26T18:58:53.863Z,10.44
2022-11-26T19:01:23.407Z,10.44
2022-11-26T19:03:52.205Z,10.43
2022-11-26T19:06:24.028Z,10.53
2022-11-26T19:08:58.300Z,10.44
2022-11-26T19:11:26.568Z,10.45
2022-11-26T19:13:56.000Z,10.44
2022-11-26T19:16:25.295Z,10.48
2022-11-26T19:18:53.167Z,10.55
2022-11-26T19:21:25.204Z,10.60
2022-11-26T19:23:54.295Z,10.57
2022-11-26T19:26:22.876Z,10.53
2022-11-26T19:28:51.428Z,10.50
2022-11-26T19:31:21.128Z,10.49
2022-11-26T19:33:54.058Z,10.48
2022-11-26T19:36:23.520Z,10.50
2022-11-26T19:38:56.058Z,10.43
2022-11-26T19:41:25.938Z,10.38
2022-11-26T19:43:54.811Z,10.32
2022-11-26T19:46:24.901Z,10.32
2022-11-26T19:48:54.440Z,10.29
2022-11-26T19:51:26.278Z,10.31
2022-11-26T19:53:55.861Z,10.26
2022-11-26T19:56:25.811Z,10.21
2022-11-26T19:58:55.209Z,10.21
2022-11-26T20:01:23.543Z,10.16
2022-11-26T20:03:51.794Z,10.10
2022-11-26T20:06:22.063Z,10.00
2022-11-26T20:08:51.503Z,9.97
2022-11-26T20:11:20.202Z,9.91
2022-11-26T20:13:50.027Z,9.89
2022-11-26T20:16:20.578Z,9.77
2022-11-26T20:18:49.019Z,9.71
2022-11-26T20:21:20.805Z,9.75
2022-11-26T20:23:49.239Z,9.76
2022-11-26T20:26:21.816Z,9.75
2022-11-26T20:28:50.525Z,9.78
2022-11-26T20:31:23.264Z,9.78
2022-11-26T20:33:53.018Z,9.81
2022-11-26T20:36:23.109Z,9.79
2022-11-26T20:38:53.461Z,9.75
2022-11-26T20:41:23.443Z,9.78
2022-11-26T20:43:57.947Z,9.85
2022-11-26T20:46:27.540Z,9.91
2022-11-26T20:48:56.307Z,9.89
2022-11-26T20:51:24.560Z,9.93
2022-11-26T20:53:53.467Z,9.98
2022-11-26T20:56:23.376Z,9.93
2022-11-26T20:58:51.960Z,9.90
2022-11-26T21:01:22.357Z,9.91
2022-11-26T21:03:51.039Z,9.92
2022-11-26T21:06:25.880Z,9.94
2022-11-26T21:08:57.680Z,9.90
2022-11-26T21:11:27.015Z,9.81
2022-11-26T21:13:54.883Z,9.80
2022-11-26T21:16:23.434Z,9.80
2022-11-26T21:18:53.830Z,9.80
2022-11-26T21:21:22.427Z,9.78
2022-11-26T21:23:50.479Z,9.83
2022-11-26T21:26:19.775Z,9.79
2022-11-26T21:28:52.832Z,9.74
2022-11-26T21:31:21.704Z,9.67
2022-11-26T21:33:55.722Z,9.74
2022-11-26T21:36:25.096Z,9.72
2022-11-26T21:38:53.253Z,9.69
2022-11-26T21:41:22.005Z,9.70
2022-11-26T21:43:50.963Z,9.70
2022-11-26T21:46:22.891Z,9.65
2022-11-26T21:48:52.464Z,9.68
2022-11-26T21:51:20.856Z,9.67
2022-11-26T21:53:49.926Z,9.70
2022-11-26T21:56:21.342Z,9.71
2022-11-26T21:58:49.919Z,9.75
2022-11-26T22:01:23.986Z,9.68
2022-11-26T22:03:53.700Z,9.65
2022-11-26T22:06:24.192Z,9.69
2022-11-26T22:08:52.703Z,9.69
2022-11-26T22:11:24.065Z,9.64
2022-11-26T22:13:52.556Z,9.69
2022-11-26T22:16:23.956Z,9.63
2022-11-26T22:18:56.090Z,9.65
2022-11-26T22:21:25.812Z,9.68
2022-11-26T22:23:54.493Z,9.65
2022-11-26T22:26:22.882Z,9.69
2022-11-26T22:28:52.469Z,9.69
2022-11-26T22:31:25.334Z,9.63
2022-11-26T22:33:56.403Z,9.56
2022-11-26T22:36:29.296Z,9.57
2022-11-26T22:38:58.675Z,9.59
2022-11-26T22:41:27.212Z,9.66
2022-11-26T22:43:55.356Z,9.65
2022-11-26T22:46:25.625Z,9.62
2022-11-26T22:49:00.365Z,9.64
2022-11-26T22:51:30.483Z,9.62
2022-11-26T22:54:00.050Z,9.62
2022-11-26T22:56:28.316Z,9.59
2022-11-26T22:58:56.618Z,9.65
2022-11-26T23:01:27.960Z,9.69
2022-11-26T23:04:01.675Z,9.72
2022-11-26T23:06:31.322Z,9.78
2022-11-26T23:09:01.529Z,9.80
2022-11-26T23:11:31.250Z,9.81
2022-11-26T23:13:59.283Z,9.79
2022-11-26T23:16:29.272Z,9.77
2022-11-26T23:18:58.629Z,9.75
2022-11-26T23:21:28.894Z,9.78
2022-11-26T23:23:57.391Z,9.73
2022-11-26T23:26:27.909Z,9.73
2022-11-26T23:28:56.640Z,9.76
2022-11-26T23:31:26.864Z,9.78
2022-11-26T23:33:56.553Z,9.72
2022-11-26T23:36:25.261Z,9.64
2022-11-26T23:38:53.372Z,9.64
2022-11-26T23:41:21.616Z,9.50
2022-11-26T23:43:49.591Z,9.53
2022-11-26T23:46:19.807Z,9.50
2022-11-26T23:48:48.308Z,9.55
2022-11-26T23:51:19.506Z,9.58
2022-11-26T23:53:49.020Z,9.53
2022-11-26T23:56:19.639Z,9.52
2022-11-26T23:58:49.922Z,9.52
